createdAt,value
2022-07-30T00:01:29.328Z,98239.38
2022-07-30T00:04:32.696Z,98233.06
2022-07-30T00:07:35.818Z,98236.09
2022-07-30T00:10:39.285Z,98232.06
2022-07-30T00:13:42.069Z,98214.16
2022-07-30T00:16:45.061Z,98224.09
2022-07-30T00:19:47.898Z,98214.28
2022-07-30T00:22:51.198Z,98214.00
2022-07-30T00:25:54.022Z,98209.28
2022-07-30T00:28:57.011Z,98216.31
2022-07-30T00:31:59.859Z,98208.09
2022-07-30T00:35:03.162Z,98181.44
2022-07-30T00:38:07.909Z,98214.16
2022-07-30T00:41:11.357Z,98209.37
2022-07-30T00:44:15.412Z,98203.78
2022-07-30T00:47:18.924Z,98210.81
2022-07-30T00:50:22.265Z,98211.69
2022-07-30T00:53:27.153Z,98210.41
2022-07-30T00:56:30.693Z,98202.91
2022-07-30T00:59:34.628Z,98202.31
2022-07-30T01:02:37.566Z,98195.53
2022-07-30T01:05:40.859Z,98199.12
2022-07-30T01:08:44.279Z,98210.53
2022-07-30T01:11:47.801Z,98205.06
2022-07-30T01:14:50.923Z,98204.19
2022-07-30T01:17:57.146Z,98208.94
2022-07-30T01:21:09.966Z,98212.25
2022-07-30T01:24:25.976Z,98206.53
2022-07-30T01:27:30.741Z,98203.63
2022-07-30T01:30:37.091Z,98203.03
2022-07-30T01:33:44.292Z,98209.81
2022-07-30T01:36:47.558Z,98205.22
2022-07-30T01:39:51.590Z,98198.59
2022-07-30T01:42:58.035Z,98189.50
2022-07-30T01:46:03.325Z,98189.34
2022-07-30T01:49:08.892Z,98192.81
2022-07-30T01:52:12.177Z,98190.06
2022-07-30T01:55:18.159Z,98183.00
2022-07-30T01:58:23.460Z,98180.97
2022-07-30T02:01:27.838Z,98183.00
2022-07-30T02:04:32.645Z,98180.13
2022-07-30T02:07:57.450Z,98180.28
2022-07-30T02:11:06.422Z,98181.00
2022-07-30T02:14:18.009Z,98178.66
2022-07-30T02:17:30.451Z,98185.47
2022-07-30T02:20:51.222Z,98184.56
2022-07-30T02:23:57.105Z,98181.97
2022-07-30T02:27:07.559Z,98171.87
2022-07-30T02:30:11.595Z,98170.16
2022-07-30T02:33:15.680Z,98152.69
2022-07-30T02:36:19.531Z,98153.41
2022-07-30T02:39:24.007Z,98145.06
2022-07-30T02:42:27.860Z,98140.31
2022-07-30T02:45:31.233Z,98143.91
2022-07-30T02:48:35.641Z,98129.94
2022-07-30T02:51:39.721Z,98136.41
2022-07-30T02:54:43.670Z,98144.75
2022-07-30T02:57:47.724Z,98133.81
2022-07-30T03:00:52.341Z,98146.50
2022-07-30T03:03:55.706Z,98143.72
2022-07-30T03:07:02.657Z,98157.00
2022-07-30T03:10:11.985Z,98148.94
2022-07-30T03:13:15.112Z,98153.09
2022-07-30T03:16:20.202Z,98152.91
2022-07-30T03:19:24.176Z,98157.53
2022-07-30T03:22:32.627Z,98158.97
2022-07-30T03:25:37.164Z,98157.22
2022-07-30T03:28:40.774Z,98157.06
2022-07-30T03:31:44.037Z,98159.22
2022-07-30T03:34:48.990Z,98147.19
2022-07-30T03:37:53.652Z,98162.75
2022-07-30T03:40:59.200Z,98153.41
2022-07-30T03:44:02.604Z,98150.81
2022-07-30T03:47:12.416Z,98154.84
2022-07-30T03:50:15.660Z,98154.69
2022-07-30T03:53:19.422Z,98149.50
2022-07-30T03:56:26.763Z,98151.09
2022-07-30T03:59:30.592Z,98148.87
2022-07-30T04:02:41.465Z,98137.97
2022-07-30T04:05:49.943Z,98143.16
2022-07-30T04:08:52.656Z,98137.97
2022-07-30T04:11:56.057Z,98140.84
2022-07-30T04:14:59.547Z,98116.06
2022-07-30T04:18:04.648Z,98127.16
2022-07-30T04:21:17.260Z,98123.56
2022-07-30T04:24:21.238Z,98127.88
2022-07-30T04:27:25.563Z,98124.44
2022-07-30T04:30:29.130Z,98126.00
2022-07-30T04:33:32.438Z,98117.06
2022-07-30T04:36:37.345Z,98121.59
2022-07-30T04:39:40.554Z,98129.91
2022-07-30T04:42:43.630Z,98123.31
2022-07-30T04:45:46.825Z,98120.78
2022-07-30T04:48:49.997Z,98136.22
2022-07-30T04:51:53.658Z,98126.84
2022-07-30T04:54:59.641Z,98127.16
2022-07-30T04:58:03.135Z,98082.28
2022-07-30T05:01:09.479Z,98125.87
2022-07-30T05:04:13.377Z,98127.56
2022-07-30T05:07:22.289Z,98124.28
2022-07-30T05:10:26.219Z,98125.00
2022-07-30T05:13:34.639Z,98123.00
2022-07-30T05:16:41.994Z,98122.44
2022-07-30T05:19:47.545Z,98134.81
2022-07-30T05:22:52.028Z,98121.31
2022-07-30T05:25:55.679Z,98108.72
2022-07-30T05:28:58.882Z,98129.19
2022-07-30T05:32:03.644Z,98137.50
2022-07-30T05:35:07.979Z,98141.06
2022-07-30T05:38:11.513Z,98144.66
2022-07-30T05:41:30.757Z,98144.25
2022-07-30T05:44:36.744Z,98143.75
2022-07-30T05:47:40.033Z,98149.56
2022-07-30T05:50:44.019Z,98153.84
2022-07-30T05:53:47.195Z,98151.09
2022-07-30T05:56:52.049Z,98148.16
2022-07-30T05:59:54.875Z,98148.41
2022-07-30T06:02:58.179Z,98153.72
2022-07-30T06:06:06.667Z,98161.06
2022-07-30T06:09:09.839Z,98170.66
2022-07-30T06:12:13.038Z,98188.94
2022-07-30T06:15:18.569Z,98189.44
2022-07-30T06:18:25.111Z,98199.88
2022-07-30T06:21:28.051Z,98186.09
2022-07-30T06:24:52.856Z,98192.38
2022-07-30T06:27:55.747Z,98182.19
2022-07-30T06:30:59.652Z,98184.03
2022-07-30T06:34:02.864Z,98171.81
2022-07-30T06:37:06.419Z,98168.22
2022-07-30T06:40:10.684Z,98163.81
2022-07-30T06:43:14.806Z,98164.19
2022-07-30T06:46:19.000Z,98183.69
2022-07-30T06:49:23.327Z,98190.44
2022-07-30T06:52:27.466Z,98182.13
2022-07-30T06:55:30.855Z,98189.59
2022-07-30T06:58:34.498Z,98191.78
2022-07-30T07:01:39.064Z,98175.66
2022-07-30T07:04:42.081Z,98204.31
2022-07-30T07:07:56.500Z,98188.13
2022-07-30T07:11:02.107Z,98177.03
2022-07-30T07:14:05.446Z,98184.84
2022-07-30T07:17:08.988Z,98169.28
2022-07-30T07:20:14.026Z,98155.31
2022-07-30T07:23:19.627Z,98169.72
2022-07-30T07:26:24.095Z,98211.97
2022-07-30T07:29:27.836Z,98244.56
2022-07-30T07:32:31.320Z,98175.84
2022-07-30T07:35:49.109Z,98172.94
2022-07-30T07:38:54.758Z,98187.81
2022-07-30T07:41:58.454Z,98178.72
2022-07-30T07:45:02.118Z,98162.00
2022-07-30T07:48:06.539Z,98180.31
2022-07-30T07:51:10.794Z,98181.94
2022-07-30T07:54:21.630Z,98171.41
2022-07-30T07:57:25.339Z,98172.47
2022-07-30T08:00:29.768Z,98166.03
2022-07-30T08:03:33.198Z,98153.91
2022-07-30T08:06:37.311Z,98159.38
2022-07-30T08:09:44.688Z,98143.91
2022-07-30T08:12:51.881Z,98138.19
2022-07-30T08:15:57.008Z,98139.63
2022-07-30T08:19:04.177Z,98134.72
2022-07-30T08:22:08.238Z,98131.22
2022-07-30T08:25:11.490Z,98136.31
2022-07-30T08:28:35.877Z,98139.00
2022-07-30T08:31:40.190Z,98138.66
2022-07-30T08:34:43.251Z,98151.00
2022-07-30T08:37:47.212Z,98149.81
2022-07-30T08:40:50.938Z,98181.88
2022-07-30T08:57:03.139Z,98206.06
2022-07-30T09:00:11.177Z,98206.06
2022-07-30T09:03:13.945Z,98210.16
2022-07-30T09:06:16.922Z,98209.91
2022-07-30T09:09:19.891Z,98207.03
2022-07-30T09:12:40.476Z,98211.56
2022-07-30T09:15:43.195Z,98206.84
2022-07-30T09:18:46.887Z,98213.44
2022-07-30T09:21:57.750Z,98201.94
2022-07-30T09:25:01.128Z,98202.84
2022-07-30T09:28:16.755Z,98194.09
2022-07-30T09:35:13.301Z,98212.41
2022-07-30T09:38:18.158Z,98170.47
2022-07-30T09:41:39.344Z,98208.47
2022-07-30T09:44:43.099Z,98220.28
2022-07-30T09:47:50.545Z,98199.03
2022-07-30T09:50:55.173Z,98207.81
2022-07-30T09:54:00.441Z,98210.28
2022-07-30T09:57:26.190Z,98203.63
2022-07-30T10:00:32.787Z,98202.59
2022-07-30T10:03:42.472Z,98199.00
2022-07-30T10:07:00.515Z,98200.19
2022-07-30T10:10:06.168Z,98197.56
2022-07-30T10:13:13.681Z,98200.69
2022-07-30T10:16:17.062Z,98189.41
2022-07-30T10:19:39.479Z,98205.28
2022-07-30T10:22:50.431Z,98205.56
2022-07-30T10:25:57.456Z,98197.75
2022-07-30T10:29:04.983Z,98211.41
2022-07-30T10:32:09.374Z,98229.56
2022-07-30T10:35:13.380Z,98228.13
2022-07-30T10:38:41.320Z,98251.78
2022-07-30T10:42:39.866Z,98245.31
2022-07-30T10:45:49.816Z,98227.78
2022-07-30T10:48:53.014Z,98232.66
2022-07-30T10:51:57.476Z,98238.81
2022-07-30T10:55:00.648Z,98241.63
2022-07-30T10:58:12.327Z,98225.59
2022-07-30T11:01:18.430Z,98219.69
2022-07-30T11:04:25.854Z,98203.38
2022-07-30T11:07:32.844Z,98200.81
2022-07-30T11:10:43.988Z,98209.09
2022-07-30T11:14:00.959Z,98221.41
2022-07-30T11:17:03.683Z,98204.34
2022-07-30T11:20:11.676Z,98194.75
2022-07-30T11:23:20.800Z,98183.16
2022-07-30T11:26:40.910Z,98150.38
2022-07-30T11:29:50.794Z,98154.63
2022-07-30T11:33:14.341Z,98148.56
2022-07-30T11:36:17.023Z,98159.41
2022-07-30T11:39:20.251Z,98144.34
2022-07-30T11:42:34.871Z,98161.69
2022-07-30T11:45:37.783Z,98145.31
2022-07-30T11:48:42.437Z,98140.94
2022-07-30T11:51:47.119Z,98132.19
2022-07-30T11:54:54.170Z,98138.72
2022-07-30T11:57:57.899Z,98110.56
2022-07-30T12:01:03.550Z,98134.66
2022-07-30T12:04:12.508Z,98133.13
2022-07-30T12:07:22.691Z,98128.63
2022-07-30T12:10:27.380Z,98122.16
2022-07-30T12:13:44.884Z,98126.59
2022-07-30T12:16:54.150Z,98129.19
2022-07-30T12:19:56.754Z,98124.28
2022-07-30T12:22:59.693Z,98124.19
2022-07-30T12:26:02.535Z,98129.72
2022-07-30T12:29:07.449Z,98125.00
2022-07-30T12:32:10.018Z,98119.69
2022-07-30T12:35:13.443Z,98114.66
2022-07-30T12:38:17.261Z,98048.91
2022-07-30T12:41:21.456Z,98096.03
2022-07-30T12:44:41.659Z,98086.09
2022-07-30T12:47:50.264Z,98069.47
2022-07-30T12:51:05.484Z,98075.25
2022-07-30T12:54:19.516Z,98064.75
2022-07-30T12:57:22.269Z,98099.78
2022-07-30T13:00:36.153Z,98099.31
2022-07-30T13:03:39.522Z,98085.09
2022-07-30T13:06:43.547Z,98084.28
2022-07-30T13:09:46.094Z,98076.81
2022-07-30T13:12:50.267Z,98101.13
2022-07-30T13:16:01.356Z,98106.03
2022-07-30T13:19:05.031Z,98101.31
2022-07-30T13:22:07.727Z,98098.81
2022-07-30T13:25:10.998Z,98059.81
2022-07-30T13:28:13.780Z,98040.75
2022-07-30T13:31:16.978Z,98071.44
2022-07-30T13:34:20.215Z,98065.81
2022-07-30T13:37:23.786Z,98091.22
2022-07-30T13:40:41.573Z,98073.41
2022-07-30T13:43:44.527Z,98084.44
2022-07-30T13:46:47.408Z,98072.94
2022-07-30T13:49:51.057Z,98083.56
2022-07-30T13:52:53.814Z,98083.00
2022-07-30T13:55:57.211Z,98084.72
2022-07-30T13:59:00.692Z,98077.25
2022-07-30T14:02:03.790Z,98081.72
2022-07-30T14:05:07.259Z,98086.22
2022-07-30T14:08:10.909Z,98101.06
2022-07-30T14:11:13.983Z,98096.75
2022-07-30T14:14:16.574Z,98099.94
2022-07-30T14:17:19.581Z,98099.09
2022-07-30T14:20:22.150Z,98095.34
2022-07-30T14:23:25.282Z,98081.91
2022-07-30T14:26:36.623Z,98097.03
2022-07-30T14:29:39.678Z,98093.31
2022-07-30T14:32:42.609Z,98084.50
2022-07-30T14:35:45.471Z,98085.25
2022-07-30T14:38:48.131Z,98087.37
2022-07-30T14:41:55.589Z,98079.31
2022-07-30T14:44:58.589Z,98079.78
2022-07-30T14:48:01.448Z,98098.75
2022-07-30T14:51:19.703Z,98099.16
2022-07-30T14:54:31.410Z,98100.91
2022-07-30T14:57:34.184Z,98095.44
2022-07-30T15:00:48.603Z,98087.84
2022-07-30T15:03:51.796Z,98082.78
2022-07-30T15:06:54.855Z,98095.63
2022-07-30T15:09:57.421Z,98100.50
2022-07-30T15:13:00.659Z,98100.50
2022-07-30T15:16:03.348Z,98107.69
2022-07-30T15:19:06.672Z,98103.41
2022-07-30T15:22:09.970Z,98116.25
2022-07-30T15:25:12.836Z,98109.75
2022-07-30T15:28:15.551Z,98101.38
2022-07-30T15:31:23.338Z,98098.19
2022-07-30T15:34:26.793Z,98098.34
2022-07-30T15:37:29.631Z,98093.44
2022-07-30T15:40:32.379Z,98100.19
2022-07-30T15:43:35.186Z,98101.06
2022-07-30T15:46:37.900Z,98111.37
2022-07-30T15:49:40.862Z,98110.53
2022-07-30T15:52:44.162Z,98110.34
2022-07-30T15:55:47.718Z,98113.22
2022-07-30T15:58:50.316Z,98122.09
2022-07-30T16:01:53.242Z,98133.09
2022-07-30T16:04:56.106Z,98135.25
2022-07-30T16:07:59.102Z,98132.53
2022-07-30T16:11:04.510Z,98092.44
2022-07-30T16:14:07.226Z,98127.06
2022-07-30T16:17:13.957Z,98117.34
2022-07-30T16:20:17.319Z,98114.03
2022-07-30T16:23:21.754Z,98131.47
2022-07-30T16:26:24.671Z,98113.34
2022-07-30T16:29:27.981Z,98129.88
2022-07-30T16:32:30.582Z,98121.53
2022-07-30T16:35:33.580Z,98116.06
2022-07-30T16:38:52.844Z,98123.00
2022-07-30T16:41:55.825Z,98131.53
2022-07-30T16:45:01.975Z,98125.91
2022-07-30T16:48:08.925Z,98130.81
2022-07-30T16:51:11.551Z,98135.16
2022-07-30T16:54:16.252Z,98130.97
2022-07-30T16:57:18.862Z,98134.72
2022-07-30T17:00:23.387Z,98137.28
2022-07-30T17:03:28.419Z,98148.53
2022-07-30T17:06:31.671Z,98147.78
2022-07-30T17:09:36.767Z,98155.84
2022-07-30T17:12:40.237Z,98151.09
2022-07-30T17:15:43.014Z,98150.81
2022-07-30T17:18:46.011Z,98156.03
2022-07-30T17:21:48.868Z,98141.31
2022-07-30T17:24:51.809Z,98151.94
2022-07-30T17:27:58.408Z,98131.19
2022-07-30T17:31:01.498Z,98140.97
2022-07-30T17:34:04.119Z,98128.72
2022-07-30T17:37:06.910Z,98127.41
2022-07-30T17:40:29.143Z,98137.50
2022-07-30T17:43:34.245Z,98129.56
2022-07-30T17:46:36.978Z,98116.75
2022-07-30T17:49:39.981Z,98118.03
2022-07-30T17:52:42.592Z,98118.03
2022-07-30T17:55:57.927Z,98112.97
2022-07-30T17:59:00.906Z,98114.78
2022-07-30T18:02:05.040Z,98109.19
2022-07-30T18:05:10.589Z,98100.53
2022-07-30T18:08:13.130Z,98099.66
2022-07-30T18:11:16.807Z,98099.06
2022-07-30T18:14:19.415Z,98106.13
2022-07-30T18:17:22.524Z,98092.84
2022-07-30T18:20:25.424Z,98097.75
2022-07-30T18:23:34.576Z,98103.75
2022-07-30T18:26:38.697Z,98096.97
2022-07-30T18:29:41.770Z,98107.44
2022-07-30T18:32:45.061Z,98108.56
2022-07-30T18:35:47.932Z,98079.91
2022-07-30T18:38:51.190Z,98092.28
2022-07-30T18:41:54.348Z,98087.25
2022-07-30T18:44:57.141Z,98095.44
2022-07-30T18:48:00.014Z,98099.88
2022-07-30T18:51:03.484Z,98096.69
2022-07-30T18:54:06.831Z,98107.97
2022-07-30T18:57:14.019Z,98116.34
2022-07-30T19:00:34.546Z,98124.56
2022-07-30T19:03:38.263Z,98111.06
2022-07-30T19:06:41.346Z,98137.91
2022-07-30T19:09:45.138Z,98139.53
2022-07-30T19:12:48.015Z,98135.63
2022-07-30T19:15:51.071Z,98147.56
2022-07-30T19:18:54.096Z,98148.59
2022-07-30T19:21:56.987Z,98149.31
2022-07-30T19:24:59.869Z,98144.97
2022-07-30T19:28:03.288Z,98148.59
2022-07-30T19:31:06.304Z,98146.56
2022-07-30T19:34:10.867Z,98151.44
2022-07-30T19:37:13.698Z,98148.94
2022-07-30T19:40:16.269Z,98158.25
2022-07-30T19:43:24.002Z,98162.94
2022-07-30T19:46:27.625Z,98160.19
2022-07-30T19:49:32.541Z,98167.06
2022-07-30T19:52:37.750Z,98163.69
2022-07-30T19:55:41.334Z,98153.75
2022-07-30T19:58:44.877Z,98152.88
2022-07-30T20:01:51.909Z,98150.28
2022-07-30T20:04:54.883Z,98155.03
2022-07-30T20:07:58.374Z,98156.72
2022-07-30T20:11:02.265Z,98158.75
2022-07-30T20:14:06.090Z,98147.41
2022-07-30T20:17:09.152Z,98151.81
2022-07-30T20:20:12.803Z,98153.47
2022-07-30T20:23:15.671Z,98170.34
2022-07-30T20:26:19.060Z,98168.28
2022-07-30T20:29:22.219Z,98157.37
2022-07-30T20:32:25.777Z,98166.28
2022-07-30T20:35:29.256Z,98161.88
2022-07-30T20:38:34.474Z,98155.53
2022-07-30T20:41:40.418Z,98157.66
2022-07-30T20:44:49.345Z,98153.72
2022-07-30T20:47:56.757Z,98151.66
2022-07-30T20:50:59.364Z,98150.06
2022-07-30T20:54:03.923Z,98145.59
2022-07-30T20:57:08.008Z,98147.47
2022-07-30T21:00:20.129Z,98144.84
2022-07-30T21:03:22.929Z,98131.56
2022-07-30T21:06:26.304Z,98133.87
2022-07-30T21:09:49.861Z,98141.59
2022-07-30T21:12:58.788Z,98147.03
2022-07-30T21:16:15.467Z,98138.91
2022-07-30T21:19:19.669Z,98146.12
2022-07-30T21:22:25.252Z,98139.31
2022-07-30T21:25:32.447Z,98144.16
2022-07-30T21:28:36.179Z,98126.50
2022-07-30T21:32:08.795Z,98149.06
2022-07-30T21:35:08.193Z,98153.03
2022-07-30T21:38:11.564Z,98154.75
2022-07-30T21:41:15.148Z,98153.66
2022-07-30T21:44:18.378Z,98155.66
2022-07-30T21:47:21.142Z,98155.03
2022-07-30T21:50:24.135Z,98142.75
2022-07-30T21:56:49.465Z,98145.09
2022-07-30T21:59:51.997Z,98150.31
2022-07-30T22:02:54.892Z,98155.78
2022-07-30T22:05:57.888Z,98145.47
2022-07-30T22:09:03.474Z,98137.06
2022-07-30T22:12:17.928Z,98143.88
2022-07-30T22:15:20.951Z,98136.81
2022-07-30T22:18:26.061Z,98142.16
2022-07-30T22:21:28.682Z,98124.94
2022-07-30T22:24:31.586Z,98126.69
2022-07-30T22:27:39.467Z,98123.94
2022-07-30T22:30:43.582Z,98123.84
2022-07-30T22:33:46.087Z,98116.66
2022-07-30T22:36:48.912Z,98122.34
2022-07-30T22:39:54.260Z,98110.81
2022-07-30T22:42:57.418Z,98105.75
2022-07-30T22:46:00.245Z,98113.22
2022-07-30T22:49:03.482Z,98115.06
2022-07-30T22:52:16.844Z,98062.06
2022-07-30T22:55:28.610Z,98104.53
2022-07-30T22:58:32.320Z,98093.88
2022-07-30T23:01:40.049Z,98096.88
2022-07-30T23:04:46.113Z,98086.81
2022-07-30T23:07:51.617Z,98088.69
2022-07-30T23:10:54.942Z,98086.69
2022-07-30T23:12:27.746Z,98150.03
2022-07-30T23:13:59.404Z,98077.16
2022-07-30T23:17:02.238Z,98084.59
2022-07-30T23:20:07.600Z,98080.25
2022-07-30T23:23:11.563Z,98080.53
2022-07-30T23:26:14.681Z,98075.44
2022-07-30T23:29:17.258Z,98069.38
2022-07-30T23:32:20.260Z,98066.75
2022-07-30T23:35:22.910Z,98058.44
2022-07-30T23:38:26.900Z,98064.31
2022-07-30T23:41:30.753Z,98060.72
2022-07-30T23:44:37.095Z,98058.13
2022-07-30T23:48:01.604Z,98056.38
2022-07-30T23:51:02.950Z,98048.91
2022-07-30T23:54:06.387Z,98050.78
2022-07-30T23:57:09.206Z,98052.75
